Huvudsida
METAR-TAF:

METAR-TAF

Flygplatser :

Svalbards flygplats. Longyear

Longyearbyen, Norge

latitud: 78-15N, longitud: 015-28E, höjd: 2 m

Aktuellt väderrapport

Denna rapport gjordes för 27 minuter sedan, klockan 12:50 UTC
Vind 14 kt från väst/sydväst
Temperatur 5°C
Fuktighet 75%
Tryck 1003 hPa
Sikt 10 km eller mer
Få moln på en höjd av 1500 ft
Brutna moln på en höjd av 2500 ft

METAR: ENSB 171250Z 24014KT 9999 FEW015 BKN025 05/01 Q1003 RMK WIND 1400FT 24016KT

Tid: 15:17 (13:17 UTC)

Väderprognos

Prognos gäller från 17 kl. 12 UTC till 18 kl. 12 UTC
Vind 8 kt från väst/sydväst
Sikt 10 km eller mer
Få moln på en höjd av 1000 ft
Brutna moln på en höjd av 3000 ft
Temporärt
från 17 kl. 12 UTC till 17 kl. 24 UTC
Vind 20 kt från väst/sydväst
Sannolikhet 40%
från 17 kl. 12 UTC till 18 kl. 12 UTC
Sikt: 4000 m
på en höjd av 1200 ft
lätt snö, regn

TAF: ENSB 1712/1812 24008KT 9999 FEW010 BKN030 TEMPO 1712/1724 24020KT PROB40 1712/1812 4000 -SNRA VV012

Aktuella väderrapporter och prognoser från 4000 flygplatser (METAR- och TAF-rapporter).

De tillgängliga stationerna syns som gula och röda prickar på kartan.

För musen över prickarna för att se namnen på stationerna.

Klicka sedan för att få väderrapporter och prognoser.

För att ändra kartan: Klicka på de gröna knapparna med ett svart kors på för att zooma in; den gröna knappen med ett streck på för att zooma ut; eller på de gröna pilarna för angränsande kartor.


METAR-TAF: